sensor_id;sensor_type;location;lat;lon;timestamp;temperature;humidity
13164;DHT22;6647;53.688;10.746;2023-04-25T00:01:12;8.70;1.00
13164;DHT22;6647;53.688;10.746;2023-04-25T00:02:33;8.70;1.00
13164;DHT22;6647;53.688;10.746;2023-04-25T00:03:55;8.70;1.00
13164;DHT22;6647;53.688;10.746;2023-04-25T00:05:17;8.70;1.00
13164;DHT22;6647;53.688;10.746;2023-04-25T00:06:38;8.70;1.00
13164;DHT22;6647;53.688;10.746;2023-04-25T00:07:58;8.70;1.00
13164;DHT22;6647;53.688;10.746;2023-04-25T00:09:20;8.70;1.00
13164;DHT22;6647;53.688;10.746;2023-04-25T00:10:41;8.70;1.00
13164;DHT22;6647;53.688;10.746;2023-04-25T00:12:02;8.70;1.00
13164;DHT22;6647;53.688;10.746;2023-04-25T00:13:23;8.60;1.00
13164;DHT22;6647;53.688;10.746;2023-04-25T00:14:46;8.60;1.00
13164;DHT22;6647;53.688;10.746;2023-04-25T00:16:07;8.70;1.00
13164;DHT22;6647;53.688;10.746;2023-04-25T00:17:28;8.60;1.00
13164;DHT22;6647;53.688;10.746;2023-04-25T00:18:50;8.60;1.00
13164;DHT22;6647;53.688;10.746;2023-04-25T00:20:14;8.60;1.00
13164;DHT22;6647;53.688;10.746;2023-04-25T00:21:36;8.60;1.00
13164;DHT22;6647;53.688;10.746;2023-04-25T00:22:58;8.60;1.00
13164;DHT22;6647;53.688;10.746;2023-04-25T00:24:19;8.60;1.00
13164;DHT22;6647;53.688;10.746;2023-04-25T00:25:40;8.50;1.00
13164;DHT22;6647;53.688;10.746;2023-04-25T00:27:01;8.50;1.00
13164;DHT22;6647;53.688;10.746;2023-04-25T00:28:22;8.60;1.00
13164;DHT22;6647;53.688;10.746;2023-04-25T00:29:43;8.60;1.00
13164;DHT22;6647;53.688;10.746;2023-04-25T00:31:03;8.50;1.00
13164;DHT22;6647;53.688;10.746;2023-04-25T00:32:24;8.50;1.00
13164;DHT22;6647;53.688;10.746;2023-04-25T00:33:45;8.50;1.00
13164;DHT22;6647;53.688;10.746;2023-04-25T00:35:06;8.50;1.00
13164;DHT22;6647;53.688;10.746;2023-04-25T00:36:27;8.50;1.00
13164;DHT22;6647;53.688;10.746;2023-04-25T00:37:48;8.50;1.00
13164;DHT22;6647;53.688;10.746;2023-04-25T00:39:09;8.50;1.00
13164;DHT22;6647;53.688;10.746;2023-04-25T00:40:30;8.50;1.00
13164;DHT22;6647;53.688;10.746;2023-04-25T00:41:51;8.40;1.00
13164;DHT22;6647;53.688;10.746;2023-04-25T00:43:15;8.50;1.00
13164;DHT22;6647;53.688;10.746;2023-04-25T00:44:37;8.50;1.00
13164;DHT22;6647;53.688;10.746;2023-04-25T00:46:00;8.40;1.00
13164;DHT22;6647;53.688;10.746;2023-04-25T00:47:21;8.40;1.00
13164;DHT22;6647;53.688;10.746;2023-04-25T00:48:43;8.40;1.00
13164;DHT22;6647;53.688;10.746;2023-04-25T00:50:04;8.50;1.00
13164;DHT22;6647;53.688;10.746;2023-04-25T00:51:25;8.50;1.00
13164;DHT22;6647;53.688;10.746;2023-04-25T00:52:47;8.50;1.00
13164;DHT22;6647;53.688;10.746;2023-04-25T00:54:08;8.50;1.00
13164;DHT22;6647;53.688;10.746;2023-04-25T00:55:29;8.40;1.00
13164;DHT22;6647;53.688;10.746;2023-04-25T00:56:52;8.40;1.00
13164;DHT22;6647;53.688;10.746;2023-04-25T00:58:13;8.40;1.00
13164;DHT22;6647;53.688;10.746;2023-04-25T00:59:36;8.50;1.00
13164;DHT22;6647;53.688;10.746;2023-04-25T01:00:58;8.50;1.00
13164;DHT22;6647;53.688;10.746;2023-04-25T01:02:20;8.40;1.00
13164;DHT22;6647;53.688;10.746;2023-04-25T01:03:41;8.40;1.00
13164;DHT22;6647;53.688;10.746;2023-04-25T01:05:02;8.40;1.00
13164;DHT22;6647;53.688;10.746;2023-04-25T01:06:23;8.40;1.00
13164;DHT22;6647;53.688;10.746;2023-04-25T01:07:45;8.40;1.00
13164;DHT22;6647;53.688;10.746;2023-04-25T01:09:06;8.40;1.00
13164;DHT22;6647;53.688;10.746;2023-04-25T01:10:28;8.30;1.00
13164;DHT22;6647;53.688;10.746;2023-04-25T01:11:49;8.30;1.00
13164;DHT22;6647;53.688;10.746;2023-04-25T01:13:10;8.30;1.00
13164;DHT22;6647;53.688;10.746;2023-04-25T01:14:31;8.30;1.00
13164;DHT22;6647;53.688;10.746;2023-04-25T01:15:52;8.30;1.00
13164;DHT22;6647;53.688;10.746;2023-04-25T01:17:13;8.30;1.00
13164;DHT22;6647;53.688;10.746;2023-04-25T01:18:37;8.30;1.00
13164;DHT22;6647;53.688;10.746;2023-04-25T01:19:59;8.30;1.00
13164;DHT22;6647;53.688;10.746;2023-04-25T01:21:20;8.20;1.00
13164;DHT22;6647;53.688;10.746;2023-04-25T01:22:42;8.30;1.00
13164;DHT22;6647;53.688;10.746;2023-04-25T01:24:03;8.20;1.00
13164;DHT22;6647;53.688;10.746;2023-04-25T01:25:24;8.20;1.00
13164;DHT22;6647;53.688;10.746;2023-04-25T01:26:45;8.20;1.00
13164;DHT22;6647;53.688;10.746;2023-04-25T01:28:10;8.20;1.00
13164;DHT22;6647;53.688;10.746;2023-04-25T01:29:32;8.20;1.00
13164;DHT22;6647;53.688;10.746;2023-04-25T01:30:53;8.20;1.00
13164;DHT22;6647;53.688;10.746;2023-04-25T01:32:14;8.10;1.00
13164;DHT22;6647;53.688;10.746;2023-04-25T01:33:36;8.20;1.00
13164;DHT22;6647;53.688;10.746;2023-04-25T01:34:56;8.10;1.00
13164;DHT22;6647;53.688;10.746;2023-04-25T01:36:17;8.10;1.00
13164;DHT22;6647;53.688;10.746;2023-04-25T01:37:42;8.10;1.00
13164;DHT22;6647;53.688;10.746;2023-04-25T01:39:03;8.10;1.00
13164;DHT22;6647;53.688;10.746;2023-04-25T01:40:24;8.10;1.00
13164;DHT22;6647;53.688;10.746;2023-04-25T01:41:46;8.10;1.00
13164;DHT22;6647;53.688;10.746;2023-04-25T01:43:08;8.10;1.00
13164;DHT22;6647;53.688;10.746;2023-04-25T01:44:31;8.10;1.00
13164;DHT22;6647;53.688;10.746;2023-04-25T01:45:52;8.00;1.00
13164;DHT22;6647;53.688;10.746;2023-04-25T01:47:13;8.00;1.00
13164;DHT22;6647;53.688;10.746;2023-04-25T01:48:34;8.00;1.00
13164;DHT22;6647;53.688;10.746;2023-04-25T01:49:55;8.00;1.00
13164;DHT22;6647;53.688;10.746;2023-04-25T01:51:16;8.00;1.00
13164;DHT22;6647;53.688;10.746;2023-04-25T01:52:37;8.00;1.00
13164;DHT22;6647;53.688;10.746;2023-04-25T01:53:58;8.00;1.00
13164;DHT22;6647;53.688;10.746;2023-04-25T01:55:19;7.90;1.00
13164;DHT22;6647;53.688;10.746;2023-04-25T01:56:40;8.00;1.00
13164;DHT22;6647;53.688;10.746;2023-04-25T01:58:03;8.00;1.00
13164;DHT22;6647;53.688;10.746;2023-04-25T01:59:24;8.00;1.00
13164;DHT22;6647;53.688;10.746;2023-04-25T02:00:46;8.00;1.00
13164;DHT22;6647;53.688;10.746;2023-04-25T02:02:07;8.00;1.00
13164;DHT22;6647;53.688;10.746;2023-04-25T02:03:30;8.00;1.00
13164;DHT22;6647;53.688;10.746;2023-04-25T02:04:52;8.00;1.00
13164;DHT22;6647;53.688;10.746;2023-04-25T02:06:12;7.90;1.00
13164;DHT22;6647;53.688;10.746;2023-04-25T02:07:33;8.00;1.00
13164;DHT22;6647;53.688;10.746;2023-04-25T02:08:54;8.00;1.00
13164;DHT22;6647;53.688;10.746;2023-04-25T02:10:15;8.00;1.00
13164;DHT22;6647;53.688;10.746;2023-04-25T02:11:36;7.90;1.00
13164;DHT22;6647;53.688;10.746;2023-04-25T02:12:57;7.90;1.00
13164;DHT22;6647;53.688;10.746;2023-04-25T02:14:18;7.90;1.00
13164;DHT22;6647;53.688;10.746;2023-04-25T02:15:39;7.80;1.00
13164;DHT22;6647;53.688;10.746;2023-04-25T02:17:00;7.80;1.00
13164;DHT22;6647;53.688;10.746;2023-04-25T02:18:21;7.80;1.00
13164;DHT22;6647;53.688;10.746;2023-04-25T02:19:41;7.80;1.00
13164;DHT22;6647;53.688;10.746;2023-04-25T02:21:02;7.80;1.00
13164;DHT22;6647;53.688;10.746;2023-04-25T02:22:23;7.80;1.00
13164;DHT22;6647;53.688;10.746;2023-04-25T02:23:44;7.80;1.00
13164;DHT22;6647;53.688;10.746;2023-04-25T02:25:09;7.80;1.00
13164;DHT22;6647;53.688;10.746;2023-04-25T02:26:30;7.80;1.00
13164;DHT22;6647;53.688;10.746;2023-04-25T02:27:51;7.80;1.00
13164;DHT22;6647;53.688;10.746;2023-04-25T02:29:12;7.80;1.00
13164;DHT22;6647;53.688;10.746;2023-04-25T02:30:33;7.70;1.00
13164;DHT22;6647;53.688;10.746;2023-04-25T02:31:55;7.70;1.00
13164;DHT22;6647;53.688;10.746;2023-04-25T02:33:16;7.70;1.00
13164;DHT22;6647;53.688;10.746;2023-04-25T02:34:37;7.70;1.00
13164;DHT22;6647;53.688;10.746;2023-04-25T02:35:58;7.70;1.00
13164;DHT22;6647;53.688;10.746;2023-04-25T02:37:19;7.70;1.00
13164;DHT22;6647;53.688;10.746;2023-04-25T02:38:40;7.70;99.90
13164;DHT22;6647;53.688;10.746;2023-04-25T02:40:01;7.70;99.90
13164;DHT22;6647;53.688;10.746;2023-04-25T02:41:23;7.60;99.90
13164;DHT22;6647;53.688;10.746;2023-04-25T02:42:44;7.60;99.90
13164;DHT22;6647;53.688;10.746;2023-04-25T02:44:06;7.60;99.90
13164;DHT22;6647;53.688;10.746;2023-04-25T02:45:27;7.60;99.90
13164;DHT22;6647;53.688;10.746;2023-04-25T02:46:48;7.60;99.90
13164;DHT22;6647;53.688;10.746;2023-04-25T02:48:08;7.60;99.90
13164;DHT22;6647;53.688;10.746;2023-04-25T02:49:29;7.60;99.90
13164;DHT22;6647;53.688;10.746;2023-04-25T02:50:50;7.50;99.90
13164;DHT22;6647;53.688;10.746;2023-04-25T02:52:11;7.50;99.90
13164;DHT22;6647;53.688;10.746;2023-04-25T02:53:32;7.50;99.90
13164;DHT22;6647;53.688;10.746;2023-04-25T02:54:53;7.50;99.90
13164;DHT22;6647;53.688;10.746;2023-04-25T02:56:14;7.50;99.90
13164;DHT22;6647;53.688;10.746;2023-04-25T02:57:35;7.50;99.90
13164;DHT22;6647;53.688;10.746;2023-04-25T02:58:56;7.40;99.90
13164;DHT22;6647;53.688;10.746;2023-04-25T03:00:16;7.40;99.90
13164;DHT22;6647;53.688;10.746;2023-04-25T03:01:37;7.40;99.90
13164;DHT22;6647;53.688;10.746;2023-04-25T03:02:58;7.40;99.90
13164;DHT22;6647;53.688;10.746;2023-04-25T03:04:19;7.40;99.90
13164;DHT22;6647;53.688;10.746;2023-04-25T03:05:41;7.40;99.90
13164;DHT22;6647;53.688;10.746;2023-04-25T03:07:02;7.40;99.90
13164;DHT22;6647;53.688;10.746;2023-04-25T03:08:23;7.40;99.90
13164;DHT22;6647;53.688;10.746;2023-04-25T03:09:44;7.40;99.90
13164;DHT22;6647;53.688;10.746;2023-04-25T03:11:05;7.40;99.90
13164;DHT22;6647;53.688;10.746;2023-04-25T03:12:25;7.40;99.90
13164;DHT22;6647;53.688;10.746;2023-04-25T03:13:46;7.40;99.90
13164;DHT22;6647;53.688;10.746;2023-04-25T03:15:07;7.40;99.90
13164;DHT22;6647;53.688;10.746;2023-04-25T03:16:28;7.40;99.90
13164;DHT22;6647;53.688;10.746;2023-04-25T03:17:50;7.30;99.90
13164;DHT22;6647;53.688;10.746;2023-04-25T03:19:11;7.30;99.90
13164;DHT22;6647;53.688;10.746;2023-04-25T03:20:32;7.30;99.90
13164;DHT22;6647;53.688;10.746;2023-04-25T03:21:52;7.20;99.90
13164;DHT22;6647;53.688;10.746;2023-04-25T03:23:14;7.20;99.90
13164;DHT22;6647;53.688;10.746;2023-04-25T03:24:35;7.20;99.90
13164;DHT22;6647;53.688;10.746;2023-04-25T03:25:57;7.20;99.90
13164;DHT22;6647;53.688;10.746;2023-04-25T03:27:18;7.20;99.90
13164;DHT22;6647;53.688;10.746;2023-04-25T03:28:39;7.10;99.90
13164;DHT22;6647;53.688;10.746;2023-04-25T03:30:00;7.10;99.90
13164;DHT22;6647;53.688;10.746;2023-04-25T03:31:21;7.10;99.90
13164;DHT22;6647;53.688;10.746;2023-04-25T03:32:42;7.10;99.90
13164;DHT22;6647;53.688;10.746;2023-04-25T03:34:03;7.10;99.90
13164;DHT22;6647;53.688;10.746;2023-04-25T03:35:24;7.00;99.90
13164;DHT22;6647;53.688;10.746;2023-04-25T03:36:45;7.00;99.90
13164;DHT22;6647;53.688;10.746;2023-04-25T03:38:06;7.00;99.90
13164;DHT22;6647;53.688;10.746;2023-04-25T03:39:27;7.00;99.90
13164;DHT22;6647;53.688;10.746;2023-04-25T03:40:48;7.00;99.90
13164;DHT22;6647;53.688;10.746;2023-04-25T03:42:09;7.00;99.90
13164;DHT22;6647;53.688;10.746;2023-04-25T03:43:30;7.00;99.90
13164;DHT22;6647;53.688;10.746;2023-04-25T03:44:51;7.00;99.90
13164;DHT22;6647;53.688;10.746;2023-04-25T03:46:12;7.00;99.90
13164;DHT22;6647;53.688;10.746;2023-04-25T03:47:33;7.00;99.90
13164;DHT22;6647;53.688;10.746;2023-04-25T03:48:54;7.00;99.90
13164;DHT22;6647;53.688;10.746;2023-04-25T03:50:15;7.00;99.90
13164;DHT22;6647;53.688;10.746;2023-04-25T03:51:36;7.00;99.90
13164;DHT22;6647;53.688;10.746;2023-04-25T03:52:57;7.00;99.90
13164;DHT22;6647;53.688;10.746;2023-04-25T03:54:17;7.00;99.90
13164;DHT22;6647;53.688;10.746;2023-04-25T03:55:38;7.00;99.90
13164;DHT22;6647;53.688;10.746;2023-04-25T03:56:59;7.00;99.90
13164;DHT22;6647;53.688;10.746;2023-04-25T03:58:20;6.90;99.90
13164;DHT22;6647;53.688;10.746;2023-04-25T03:59:41;6.90;99.90
13164;DHT22;6647;53.688;10.746;2023-04-25T04:01:02;6.90;99.90
13164;DHT22;6647;53.688;10.746;2023-04-25T04:02:27;6.90;99.90
13164;DHT22;6647;53.688;10.746;2023-04-25T04:03:48;6.90;99.90
13164;DHT22;6647;53.688;10.746;2023-04-25T04:05:09;6.90;99.90
13164;DHT22;6647;53.688;10.746;2023-04-25T04:06:30;6.80;99.90
13164;DHT22;6647;53.688;10.746;2023-04-25T04:07:51;6.80;99.90
13164;DHT22;6647;53.688;10.746;2023-04-25T04:09:12;6.80;99.90
13164;DHT22;6647;53.688;10.746;2023-04-25T04:10:33;6.80;99.90
13164;DHT22;6647;53.688;10.746;2023-04-25T04:11:54;6.70;99.90
13164;DHT22;6647;53.688;10.746;2023-04-25T04:13:14;6.70;99.90
13164;DHT22;6647;53.688;10.746;2023-04-25T04:14:35;6.70;99.90
13164;DHT22;6647;53.688;10.746;2023-04-25T04:15:56;6.70;99.90
13164;DHT22;6647;53.688;10.746;2023-04-25T04:17:18;6.70;99.90
13164;DHT22;6647;53.688;10.746;2023-04-25T04:18:38;6.70;99.90
13164;DHT22;6647;53.688;10.746;2023-04-25T04:20:00;6.70;99.90
13164;DHT22;6647;53.688;10.746;2023-04-25T04:21:20;6.60;99.90
13164;DHT22;6647;53.688;10.746;2023-04-25T04:22:41;6.60;99.90
13164;DHT22;6647;53.688;10.746;2023-04-25T04:24:02;6.60;99.90
13164;DHT22;6647;53.688;10.746;2023-04-25T04:25:24;6.70;99.90
13164;DHT22;6647;53.688;10.746;2023-04-25T04:26:45;6.60;99.90
13164;DHT22;6647;53.688;10.746;2023-04-25T04:28:06;6.60;99.90
13164;DHT22;6647;53.688;10.746;2023-04-25T04:29:27;6.60;99.90
13164;DHT22;6647;53.688;10.746;2023-04-25T04:30:48;6.60;99.90
13164;DHT22;6647;53.688;10.746;2023-04-25T04:32:13;6.70;99.90
13164;DHT22;6647;53.688;10.746;2023-04-25T04:33:34;6.60;99.90
13164;DHT22;6647;53.688;10.746;2023-04-25T04:34:55;6.60;99.90
13164;DHT22;6647;53.688;10.746;2023-04-25T04:36:16;6.60;99.90
13164;DHT22;6647;53.688;10.746;2023-04-25T04:37:42;6.60;99.90
13164;DHT22;6647;53.688;10.746;2023-04-25T04:39:05;6.60;99.90
13164;DHT22;6647;53.688;10.746;2023-04-25T04:40:26;6.60;99.90
13164;DHT22;6647;53.688;10.746;2023-04-25T04:41:47;6.60;99.90
13164;DHT22;6647;53.688;10.746;2023-04-25T04:43:08;6.60;99.90
13164;DHT22;6647;53.688;10.746;2023-04-25T04:44:31;6.60;99.90
13164;DHT22;6647;53.688;10.746;2023-04-25T04:45:56;6.60;99.90
13164;DHT22;6647;53.688;10.746;2023-04-25T04:47:17;6.60;99.90
13164;DHT22;6647;53.688;10.746;2023-04-25T04:48:38;6.60;99.90
13164;DHT22;6647;53.688;10.746;2023-04-25T04:50:00;6.50;99.90
13164;DHT22;6647;53.688;10.746;2023-04-25T04:51:21;6.60;99.90
13164;DHT22;6647;53.688;10.746;2023-04-25T04:52:42;6.50;99.90
13164;DHT22;6647;53.688;10.746;2023-04-25T04:54:03;6.60;99.90
13164;DHT22;6647;53.688;10.746;2023-04-25T04:55:25;6.60;99.90
13164;DHT22;6647;53.688;10.746;2023-04-25T04:56:45;6.60;99.90
13164;DHT22;6647;53.688;10.746;2023-04-25T04:58:07;6.60;99.90
13164;DHT22;6647;53.688;10.746;2023-04-25T04:59:28;6.60;99.90
13164;DHT22;6647;53.688;10.746;2023-04-25T05:00:49;6.60;99.90
13164;DHT22;6647;53.688;10.746;2023-04-25T05:02:10;6.50;99.90
13164;DHT22;6647;53.688;10.746;2023-04-25T05:03:31;6.50;99.90
13164;DHT22;6647;53.688;10.746;2023-04-25T05:04:52;6.50;99.90
13164;DHT22;6647;53.688;10.746;2023-04-25T05:06:13;6.50;99.90
13164;DHT22;6647;53.688;10.746;2023-04-25T05:07:34;6.50;99.90
13164;DHT22;6647;53.688;10.746;2023-04-25T05:08:55;6.50;99.90
13164;DHT22;6647;53.688;10.746;2023-04-25T05:10:18;6.50;99.90
13164;DHT22;6647;53.688;10.746;2023-04-25T05:11:39;6.50;99.90
13164;DHT22;6647;53.688;10.746;2023-04-25T05:13:00;6.50;99.90
13164;DHT22;6647;53.688;10.746;2023-04-25T05:14:21;6.50;99.90
13164;DHT22;6647;53.688;10.746;2023-04-25T05:15:43;6.50;99.90
13164;DHT22;6647;53.688;10.746;2023-04-25T05:17:04;6.50;99.90
13164;DHT22;6647;53.688;10.746;2023-04-25T05:18:28;6.50;99.90
13164;DHT22;6647;53.688;10.746;2023-04-25T05:19:50;6.50;99.90
13164;DHT22;6647;53.688;10.746;2023-04-25T05:21:11;6.50;99.90
13164;DHT22;6647;53.688;10.746;2023-04-25T05:22:32;6.50;99.90
13164;DHT22;6647;53.688;10.746;2023-04-25T05:23:53;6.50;99.90
13164;DHT22;6647;53.688;10.746;2023-04-25T05:25:15;6.50;99.90
13164;DHT22;6647;53.688;10.746;2023-04-25T05:26:36;6.50;99.90
13164;DHT22;6647;53.688;10.746;2023-04-25T05:27:57;6.50;99.90
13164;DHT22;6647;53.688;10.746;2023-04-25T05:29:20;6.50;99.90
13164;DHT22;6647;53.688;10.746;2023-04-25T05:30:41;6.50;99.90
13164;DHT22;6647;53.688;10.746;2023-04-25T05:32:02;6.50;99.90
13164;DHT22;6647;53.688;10.746;2023-04-25T05:33:23;6.50;99.90
13164;DHT22;6647;53.688;10.746;2023-04-25T05:34:44;6.50;99.90
13164;DHT22;6647;53.688;10.746;2023-04-25T05:36:05;6.50;99.90
13164;DHT22;6647;53.688;10.746;2023-04-25T05:37:27;6.40;99.90
13164;DHT22;6647;53.688;10.746;2023-04-25T05:38:48;6.50;99.90
13164;DHT22;6647;53.688;10.746;2023-04-25T05:40:09;6.50;99.90
13164;DHT22;6647;53.688;10.746;2023-04-25T05:41:30;6.50;99.90
13164;DHT22;6647;53.688;10.746;2023-04-25T05:42:51;6.50;99.90
13164;DHT22;6647;53.688;10.746;2023-04-25T05:44:11;6.60;99.90
13164;DHT22;6647;53.688;10.746;2023-04-25T05:45:32;6.60;99.90
13164;DHT22;6647;53.688;10.746;2023-04-25T05:46:54;6.60;99.90
13164;DHT22;6647;53.688;10.746;2023-04-25T05:48:14;6.50;99.90
13164;DHT22;6647;53.688;10.746;2023-04-25T05:49:35;6.50;99.90
13164;DHT22;6647;53.688;10.746;2023-04-25T05:50:56;6.60;99.90
13164;DHT22;6647;53.688;10.746;2023-04-25T05:52:17;6.60;99.90
13164;DHT22;6647;53.688;10.746;2023-04-25T05:53:38;6.60;99.90
13164;DHT22;6647;53.688;10.746;2023-04-25T05:54:59;6.60;99.90
13164;DHT22;6647;53.688;10.746;2023-04-25T05:56:20;6.70;99.90
13164;DHT22;6647;53.688;10.746;2023-04-25T05:57:41;6.70;99.90
13164;DHT22;6647;53.688;10.746;2023-04-25T05:59:03;6.70;99.90
13164;DHT22;6647;53.688;10.746;2023-04-25T06:00:24;6.70;99.90
13164;DHT22;6647;53.688;10.746;2023-04-25T06:01:45;6.70;99.90
13164;DHT22;6647;53.688;10.746;2023-04-25T06:03:07;6.70;99.90
13164;DHT22;6647;53.688;10.746;2023-04-25T06:04:30;6.70;99.90
13164;DHT22;6647;53.688;10.746;2023-04-25T06:05:51;6.60;99.90
13164;DHT22;6647;53.688;10.746;2023-04-25T06:07:12;6.60;99.90
13164;DHT22;6647;53.688;10.746;2023-04-25T06:08:33;6.60;99.90
13164;DHT22;6647;53.688;10.746;2023-04-25T06:09:54;6.50;99.90
13164;DHT22;6647;53.688;10.746;2023-04-25T06:11:15;6.50;99.90
13164;DHT22;6647;53.688;10.746;2023-04-25T06:12:36;6.60;99.90
13164;DHT22;6647;53.688;10.746;2023-04-25T06:13:57;6.50;99.90
13164;DHT22;6647;53.688;10.746;2023-04-25T06:15:18;6.60;99.90
13164;DHT22;6647;53.688;10.746;2023-04-25T06:16:39;6.60;99.90
13164;DHT22;6647;53.688;10.746;2023-04-25T06:17:59;6.60;99.90
13164;DHT22;6647;53.688;10.746;2023-04-25T06:19:20;6.60;99.90
13164;DHT22;6647;53.688;10.746;2023-04-25T06:20:41;6.60;99.90
13164;DHT22;6647;53.688;10.746;2023-04-25T06:22:02;6.50;99.90
13164;DHT22;6647;53.688;10.746;2023-04-25T06:23:23;6.50;99.90
13164;DHT22;6647;53.688;10.746;2023-04-25T06:24:44;6.50;99.90
13164;DHT22;6647;53.688;10.746;2023-04-25T06:26:06;6.50;99.90
13164;DHT22;6647;53.688;10.746;2023-04-25T06:27:27;6.50;99.90
13164;DHT22;6647;53.688;10.746;2023-04-25T06:28:48;6.40;99.90
13164;DHT22;6647;53.688;10.746;2023-04-25T06:30:09;6.40;99.90
13164;DHT22;6647;53.688;10.746;2023-04-25T06:31:30;6.40;99.90
13164;DHT22;6647;53.688;10.746;2023-04-25T06:32:53;6.40;99.90
13164;DHT22;6647;53.688;10.746;2023-04-25T06:34:14;6.40;99.90
13164;DHT22;6647;53.688;10.746;2023-04-25T06:35:35;6.40;99.90
13164;DHT22;6647;53.688;10.746;2023-04-25T06:36:56;6.50;99.90
13164;DHT22;6647;53.688;10.746;2023-04-25T06:38:17;6.50;99.90
13164;DHT22;6647;53.688;10.746;2023-04-25T06:39:38;6.50;99.90
13164;DHT22;6647;53.688;10.746;2023-04-25T06:40:59;6.50;99.90
13164;DHT22;6647;53.688;10.746;2023-04-25T06:42:20;6.50;99.90
13164;DHT22;6647;53.688;10.746;2023-04-25T06:43:40;6.50;99.90
13164;DHT22;6647;53.688;10.746;2023-04-25T06:45:02;6.50;99.90
13164;DHT22;6647;53.688;10.746;2023-04-25T06:46:22;6.50;99.90
13164;DHT22;6647;53.688;10.746;2023-04-25T06:47:43;6.50;99.90
13164;DHT22;6647;53.688;10.746;2023-04-25T06:49:04;6.50;99.90
13164;DHT22;6647;53.688;10.746;2023-04-25T06:50:25;6.60;99.90
13164;DHT22;6647;53.688;10.746;2023-04-25T06:51:46;6.60;99.90
13164;DHT22;6647;53.688;10.746;2023-04-25T06:53:07;6.60;99.90
13164;DHT22;6647;53.688;10.746;2023-04-25T06:54:29;6.60;99.90
13164;DHT22;6647;53.688;10.746;2023-04-25T06:55:50;6.60;99.90
13164;DHT22;6647;53.688;10.746;2023-04-25T06:57:11;6.60;99.90
13164;DHT22;6647;53.688;10.746;2023-04-25T06:58:32;6.60;99.90
13164;DHT22;6647;53.688;10.746;2023-04-25T06:59:53;6.70;99.90
13164;DHT22;6647;53.688;10.746;2023-04-25T07:01:13;6.70;99.90
13164;DHT22;6647;53.688;10.746;2023-04-25T07:02:35;6.70;99.90
13164;DHT22;6647;53.688;10.746;2023-04-25T07:03:56;6.80;99.90
13164;DHT22;6647;53.688;10.746;2023-04-25T07:05:17;6.80;99.90
13164;DHT22;6647;53.688;10.746;2023-04-25T07:06:38;6.80;99.90
13164;DHT22;6647;53.688;10.746;2023-04-25T07:08:03;6.80;99.90
13164;DHT22;6647;53.688;10.746;2023-04-25T07:09:24;6.90;99.90
13164;DHT22;6647;53.688;10.746;2023-04-25T07:10:44;6.80;99.90
13164;DHT22;6647;53.688;10.746;2023-04-25T07:12:06;6.90;99.90
13164;DHT22;6647;53.688;10.746;2023-04-25T07:13:27;6.90;99.90
13164;DHT22;6647;53.688;10.746;2023-04-25T07:14:48;6.90;99.90
13164;DHT22;6647;53.688;10.746;2023-04-25T07:16:09;6.90;99.90
13164;DHT22;6647;53.688;10.746;2023-04-25T07:17:30;6.90;99.90
13164;DHT22;6647;53.688;10.746;2023-04-25T07:18:51;6.90;99.90
13164;DHT22;6647;53.688;10.746;2023-04-25T07:20:12;6.90;99.90
13164;DHT22;6647;53.688;10.746;2023-04-25T07:21:32;6.90;99.90
13164;DHT22;6647;53.688;10.746;2023-04-25T07:22:53;6.90;99.90
13164;DHT22;6647;53.688;10.746;2023-04-25T07:24:14;7.00;99.90
13164;DHT22;6647;53.688;10.746;2023-04-25T07:25:35;6.90;99.90
13164;DHT22;6647;53.688;10.746;2023-04-25T07:26:56;7.00;99.90
13164;DHT22;6647;53.688;10.746;2023-04-25T07:28:17;7.00;99.90
13164;DHT22;6647;53.688;10.746;2023-04-25T07:29:38;7.00;99.90
13164;DHT22;6647;53.688;10.746;2023-04-25T07:30:59;7.00;99.90
13164;DHT22;6647;53.688;10.746;2023-04-25T07:32:20;7.00;99.90
13164;DHT22;6647;53.688;10.746;2023-04-25T07:33:41;7.00;99.90
13164;DHT22;6647;53.688;10.746;2023-04-25T07:35:02;7.10;99.90
13164;DHT22;6647;53.688;10.746;2023-04-25T07:36:24;7.10;99.90
13164;DHT22;6647;53.688;10.746;2023-04-25T07:37:44;7.10;99.90
13164;DHT22;6647;53.688;10.746;2023-04-25T07:39:05;7.10;99.90
13164;DHT22;6647;53.688;10.746;2023-04-25T07:40:27;7.10;99.90
13164;DHT22;6647;53.688;10.746;2023-04-25T07:41:48;7.10;99.90
13164;DHT22;6647;53.688;10.746;2023-04-25T07:43:08;7.10;99.90
13164;DHT22;6647;53.688;10.746;2023-04-25T07:44:29;7.10;99.90
13164;DHT22;6647;53.688;10.746;2023-04-25T07:45:58;7.20;99.90
13164;DHT22;6647;53.688;10.746;2023-04-25T07:47:19;7.20;99.90
13164;DHT22;6647;53.688;10.746;2023-04-25T07:48:40;7.20;99.90
13164;DHT22;6647;53.688;10.746;2023-04-25T07:50:02;7.20;99.90
13164;DHT22;6647;53.688;10.746;2023-04-25T07:51:24;7.20;99.90
13164;DHT22;6647;53.688;10.746;2023-04-25T07:52:45;7.20;99.90
13164;DHT22;6647;53.688;10.746;2023-04-25T07:54:06;7.20;99.90
13164;DHT22;6647;53.688;10.746;2023-04-25T07:55:26;7.20;99.90
13164;DHT22;6647;53.688;10.746;2023-04-25T07:56:47;7.30;99.90
13164;DHT22;6647;53.688;10.746;2023-04-25T07:58:09;7.30;99.90
13164;DHT22;6647;53.688;10.746;2023-04-25T07:59:30;7.30;99.90
13164;DHT22;6647;53.688;10.746;2023-04-25T08:00:51;7.30;99.90
13164;DHT22;6647;53.688;10.746;2023-04-25T08:02:12;7.30;99.90
13164;DHT22;6647;53.688;10.746;2023-04-25T08:03:33;7.30;99.90
13164;DHT22;6647;53.688;10.746;2023-04-25T08:04:53;7.30;99.90
13164;DHT22;6647;53.688;10.746;2023-04-25T08:06:15;7.20;99.90
13164;DHT22;6647;53.688;10.746;2023-04-25T08:07:35;7.30;99.90
13164;DHT22;6647;53.688;10.746;2023-04-25T08:08:57;7.20;99.90
13164;DHT22;6647;53.688;10.746;2023-04-25T08:10:18;7.30;99.90
13164;DHT22;6647;53.688;10.746;2023-04-25T08:11:39;7.30;99.90
13164;DHT22;6647;53.688;10.746;2023-04-25T08:13:00;7.30;99.90
13164;DHT22;6647;53.688;10.746;2023-04-25T08:14:21;7.40;99.90
13164;DHT22;6647;53.688;10.746;2023-04-25T08:15:42;7.40;99.90
13164;DHT22;6647;53.688;10.746;2023-04-25T08:17:03;7.40;99.90
13164;DHT22;6647;53.688;10.746;2023-04-25T08:18:24;7.40;99.90
13164;DHT22;6647;53.688;10.746;2023-04-25T08:19:45;7.40;99.90
13164;DHT22;6647;53.688;10.746;2023-04-25T08:21:06;7.40;99.90
13164;DHT22;6647;53.688;10.746;2023-04-25T08:22:30;7.40;99.90
13164;DHT22;6647;53.688;10.746;2023-04-25T08:23:51;7.50;99.90
13164;DHT22;6647;53.688;10.746;2023-04-25T08:25:12;7.50;99.90
13164;DHT22;6647;53.688;10.746;2023-04-25T08:26:33;7.60;99.90
13164;DHT22;6647;53.688;10.746;2023-04-25T08:27:55;7.60;99.90
13164;DHT22;6647;53.688;10.746;2023-04-25T08:29:16;7.70;99.90
13164;DHT22;6647;53.688;10.746;2023-04-25T08:30:37;7.70;99.90
13164;DHT22;6647;53.688;10.746;2023-04-25T08:31:58;7.70;99.90
13164;DHT22;6647;53.688;10.746;2023-04-25T08:33:19;7.80;99.90
13164;DHT22;6647;53.688;10.746;2023-04-25T08:34:40;7.80;99.90
13164;DHT22;6647;53.688;10.746;2023-04-25T08:36:03;7.80;99.90
13164;DHT22;6647;53.688;10.746;2023-04-25T08:37:24;7.90;99.90
13164;DHT22;6647;53.688;10.746;2023-04-25T08:38:44;7.90;99.90
13164;DHT22;6647;53.688;10.746;2023-04-25T08:40:06;7.90;99.90
13164;DHT22;6647;53.688;10.746;2023-04-25T08:41:31;8.00;99.90
13164;DHT22;6647;53.688;10.746;2023-04-25T08:42:53;8.00;99.90
13164;DHT22;6647;53.688;10.746;2023-04-25T08:44:14;8.00;99.90